Time;durP1;ratioP1;P1;durP2;ratioP2;P2;SDS_P1;SDS_P2;PMS_P1;PMS_P2;Temp;Humidity;BMP_temperature;BMP_pressure;BME280_temperature;BME280_humidity;BME280_pressure;Samples;Min_cycle;Max_cycle;Signal;HPM_P1;HPM_P2
2022/08/08 00:00:10;;;;;;;;;2.00;2.00;;;;;21.58;36.29;101991.13;5037572;28;45318;-82
2022/08/08 00:03:03;;;;;;;;;5.00;3.00;;;;;21.52;36.50;101992.31;5037425;28;45491;-82
2022/08/08 00:05:42;;;;;;;;;3.50;2.25;;;;;21.50;36.96;101993.34;5052842;28;45809;-82
2022/08/08 00:08:28;;;;;;;;;2.00;2.00;;;;;21.45;36.88;101999.75;5075722;28;45407;-82
2022/08/08 00:11:14;;;;;;;;;5.00;3.50;;;;;21.40;37.42;101996.47;5057529;28;45462;-82
2022/08/08 00:14:00;;;;;;;;;2.50;2.50;;;;;21.37;36.95;102001.94;5057425;28;45425;-82
2022/08/08 00:16:34;;;;;;;;;3.00;3.00;;;;;21.34;37.01;101995.94;5057008;28;46561;-83
2022/08/08 00:19:05;;;;;;;;;3.00;2.50;;;;;21.32;37.03;101984.59;5064558;28;45337;-81
2022/08/08 00:21:37;;;;;;;;;4.00;4.00;;;;;21.27;37.76;101984.84;5086198;28;45568;-82
2022/08/08 00:24:10;;;;;;;;;2.50;2.00;;;;;21.24;37.80;101985.84;5057426;27;45433;-82
2022/08/08 00:26:39;;;;;;;;;6.00;4.00;;;;;21.23;37.44;101985.97;5059341;28;45405;-82
2022/08/08 00:29:13;;;;;;;;;2.50;2.00;;;;;21.20;37.53;101986.13;5060735;28;45426;-82
2022/08/08 00:31:41;;;;;;;;;4.00;4.00;;;;;21.16;38.02;101985.41;5051630;28;45351;-83
2022/08/08 00:36:57;;;;;;;;;5.25;3.00;;;;;21.12;38.51;101985.66;5058624;28;45306;-82
2022/08/08 00:39:35;;;;;;;;;5.25;5.25;;;;;21.10;38.24;101984.88;5040391;28;45356;-82
2022/08/08 00:42:29;;;;;;;;;3.00;3.00;;;;;21.06;38.03;101982.41;5040526;28;45333;-82
2022/08/08 00:45:26;;;;;;;;;3.00;3.00;;;;;21.04;38.18;101981.66;5058656;28;45425;-82
2022/08/08 00:48:08;;;;;;;;;3.50;3.00;;;;;21.02;38.43;101975.59;5045868;28;45660;-82
2022/08/08 00:50:51;;;;;;;;;3.25;3.00;;;;;20.99;38.64;101981.03;5040600;28;45877;-82
2022/08/08 00:53:19;;;;;;;;;3.00;2.50;;;;;20.95;38.64;101982.13;5058376;28;45392;-82
2022/08/08 00:56:09;;;;;;;;;6.50;2.50;;;;;20.96;38.69;101972.41;5058301;28;45499;-82
2022/08/08 00:58:49;;;;;;;;;3.75;3.75;;;;;20.93;39.02;101973.44;5040136;28;45712;-82
2022/08/08 01:01:33;;;;;;;;;5.75;3.00;;;;;20.91;38.96;101972.63;5057909;28;45935;-82
2022/08/08 01:04:23;;;;;;;;;2.25;2.00;;;;;20.86;39.01;101967.59;5060922;28;45222;-82
2022/08/08 01:07:06;;;;;;;;;5.75;3.75;;;;;20.85;39.04;101971.16;5078548;28;45354;-82
2022/08/08 01:09:45;;;;;;;;;4.00;3.75;;;;;20.85;39.26;101972.97;5078480;28;46363;-82
2022/08/08 01:12:34;;;;;;;;;3.00;3.00;;;;;20.80;39.21;101967.94;5060091;28;45299;-82
2022/08/08 01:15:31;;;;;;;;;3.00;2.00;;;;;20.80;39.13;101967.03;5077917;28;45316;-81
2022/08/08 01:18:11;;;;;;;;;3.00;3.00;;;;;20.76;39.49;101963.72;5078285;28;45453;-82
2022/08/08 01:20:48;;;;;;;;;3.75;3.75;;;;;20.74;39.60;101962.94;5078049;28;45353;-82
2022/08/08 01:23:22;;;;;;;;;5.25;4.25;;;;;20.74;39.97;101959.44;5077955;28;45473;-82
2022/08/08 01:26:04;;;;;;;;;3.75;3.75;;;;;20.71;39.71;101967.53;5077926;27;45372;-82
2022/08/08 01:28:49;;;;;;;;;3.25;3.00;;;;;20.67;39.50;101964.19;5060181;28;45287;-82
2022/08/08 01:31:51;;;;;;;;;6.50;4.00;;;;;20.61;39.73;101960.06;5072070;28;45432;-82
2022/08/08 01:34:47;;;;;;;;;5.00;3.75;;;;;20.59;40.35;101961.91;5057725;28;45382;-82
2022/08/08 01:37:15;;;;;;;;;4.25;4.25;;;;;20.57;39.98;101963.78;5039197;28;45397;-82
2022/08/08 01:40:04;;;;;;;;;3.75;3.75;;;;;20.56;39.97;101963.84;5057649;28;45335;-82
2022/08/08 01:43:03;;;;;;;;;5.50;4.00;;;;;20.54;40.33;101965.72;5039561;28;46466;-82
2022/08/08 01:46:02;;;;;;;;;4.50;4.00;;;;;20.51;40.26;101964.13;5057403;28;45881;-82
2022/08/08 01:48:41;;;;;;;;;3.00;3.00;;;;;20.47;40.64;101970.50;5039584;28;45487;-82
2022/08/08 01:51:28;;;;;;;;;4.00;3.00;;;;;20.46;41.45;101976.72;5039367;28;45447;-82
2022/08/08 01:54:02;;;;;;;;;5.50;4.00;;;;;20.44;41.31;101971.50;5039299;28;46428;-82
2022/08/08 01:56:50;;;;;;;;;3.00;3.00;;;;;20.42;40.51;101965.44;5057491;28;45812;-82
2022/08/08 01:59:28;;;;;;;;;3.75;3.75;;;;;20.40;40.41;101972.59;4978438;28;45348;-82
2022/08/08 02:02:02;;;;;;;;;4.00;4.00;;;;;20.40;40.52;101967.28;4978866;28;45387;-82
2022/08/08 02:04:42;;;;;;;;;6.25;4.50;;;;;20.40;40.46;101969.09;4994840;28;46813;-82
2022/08/08 02:07:17;;;;;;;;;5.00;3.00;;;;;20.37;41.06;101963.94;4995064;28;45318;-82
2022/08/08 02:09:57;;;;;;;;;5.00;3.00;;;;;20.36;40.81;101970.19;4978738;28;45473;-82
2022/08/08 02:12:31;;;;;;;;;4.75;4.75;;;;;20.32;40.62;101969.50;4994982;28;45280;-82
2022/08/08 02:15:03;;;;;;;;;5.50;3.00;;;;;20.30;40.65;101974.00;4978525;28;46156;-82
2022/08/08 02:17:41;;;;;;;;;4.75;4.00;;;;;20.24;40.80;101967.19;4978498;28;45470;-83
2022/08/08 02:20:15;;;;;;;;;4.00;4.00;;;;;20.21;41.73;101970.03;4978679;28;45302;-82
2022/08/08 02:23:19;;;;;;;;;6.75;4.00;;;;;20.19;41.12;101961.31;4978500;28;45436;-83
2022/08/08 02:25:54;;;;;;;;;4.25;4.25;;;;;20.15;41.48;101959.75;5023978;28;46506;-82
2022/08/08 02:28:46;;;;;;;;;6.50;3.00;;;;;20.09;41.90;101960.91;5017260;28;46301;-82
2022/08/08 02:31:39;;;;;;;;;3.75;3.25;;;;;20.05;41.85;101956.69;5017938;28;45586;-82
2022/08/08 02:34:13;;;;;;;;;5.00;4.00;;;;;20.04;42.30;101962.94;5019478;28;45317;-81
2022/08/08 02:36:50;;;;;;;;;4.50;4.50;;;;;20.03;41.83;101968.28;5063937;28;45540;-81
2022/08/08 02:39:49;;;;;;;;;3.75;3.00;;;;;20.00;42.14;101966.66;5077104;28;45270;-82
2022/08/08 02:42:46;;;;;;;;;3.00;3.00;;;;;19.99;41.59;101969.38;5076782;27;45280;-82
2022/08/08 02:45:39;;;;;;;;;4.25;4.00;;;;;20.00;41.52;101965.78;5077126;28;45169;-82
2022/08/08 02:48:33;;;;;;;;;4.50;4.50;;;;;20.00;41.80;101961.38;5108793;27;45434;-81
2022/08/08 02:51:23;;;;;;;;;4.25;4.25;;;;;19.98;41.79;101965.00;5109649;27;45825;-82
2022/08/08 02:54:01;;;;;;;;;5.00;4.50;;;;;19.96;42.33;101961.59;5092561;27;45394;-82
2022/08/08 02:56:45;;;;;;;;;7.00;5.75;;;;;19.94;42.10;101961.66;5075192;28;45399;-82
2022/08/08 02:59:52;;;;;;;;;5.50;3.50;;;;;19.91;41.99;101961.84;5092101;27;46158;-82
2022/08/08 03:02:54;;;;;;;;;6.00;4.00;;;;;19.90;42.41;101963.59;5077393;27;45894;-82
2022/08/08 03:06:15;;;;;;;;;4.00;4.00;;;;;19.87;42.71;101971.69;5076382;27;45458;-82
2022/08/08 03:09:08;;;;;;;;;5.50;4.25;;;;;19.82;42.43;101968.41;5033699;28;45507;-81
2022/08/08 03:12:07;;;;;;;;;4.00;3.50;;;;;19.79;42.35;101971.19;5033174;28;46382;-81
2022/08/08 03:14:43;;;;;;;;;5.00;5.00;;;;;19.76;42.22;101967.84;5033660;28;45542;-82
2022/08/08 03:17:09;;;;;;;;;4.00;4.00;;;;;19.73;43.26;101974.97;5033870;28;45313;-82
2022/08/08 03:20:12;;;;;;;;;6.00;4.00;;;;;19.73;42.93;101974.13;5033646;28;45475;-81
2022/08/08 03:22:48;;;;;;;;;4.25;4.25;;;;;19.71;43.42;101975.97;5033242;28;46398;-82
2022/08/08 03:25:16;;;;;;;;;7.50;5.00;;;;;19.72;42.74;101975.94;5032981;28;45444;-82
2022/08/08 03:27:59;;;;;;;;;5.25;4.75;;;;;19.70;42.81;101980.38;5033694;28;45322;-81
2022/08/08 03:30:25;;;;;;;;;9.00;5.00;;;;;19.67;43.30;101983.19;5033576;28;45477;-81
2022/08/08 03:35:38;;;;;;;;;5.00;5.00;;;;;19.62;43.12;101985.16;5047927;28;45911;-82
2022/08/08 03:38:04;;;;;;;;;4.00;4.00;;;;;19.61;43.63;101983.44;5033477;28;45309;-82
2022/08/08 03:40:30;;;;;;;;;4.25;4.00;;;;;19.59;43.88;101984.47;5033244;28;45523;-82
2022/08/08 03:42:57;;;;;;;;;7.00;6.00;;;;;19.58;43.58;101982.75;5050032;28;45426;-82
2022/08/08 03:45:25;;;;;;;;;8.25;5.50;;;;;19.56;43.39;101979.31;5053541;28;45278;-82
2022/08/08 03:48:04;;;;;;;;;5.50;5.00;;;;;19.54;44.16;101976.75;5054692;28;45456;-82
2022/08/08 03:50:31;;;;;;;;;5.00;4.50;;;;;19.52;44.09;101975.97;5055841;28;45451;-82
2022/08/08 03:53:01;;;;;;;;;5.50;4.25;;;;;19.51;43.83;101990.94;5055461;28;45568;-82
2022/08/08 03:55:27;;;;;;;;;5.50;5.25;;;;;19.51;43.64;101985.66;5055306;28;45493;-82
2022/08/08 03:57:54;;;;;;;;;5.00;5.00;;;;;19.52;43.41;101995.31;5055928;28;45467;-82
2022/08/08 04:00:22;;;;;;;;;5.25;5.25;;;;;19.51;43.31;101998.03;5056266;28;45368;-82
2022/08/08 04:02:54;;;;;;;;;6.00;4.50;;;;;19.52;43.65;101987.41;5057972;28;45478;-82
2022/08/08 04:05:19;;;;;;;;;5.50;4.50;;;;;19.51;44.15;101990.94;5073542;27;45392;-82
2022/08/08 04:07:45;;;;;;;;;7.75;5.00;;;;;19.50;43.46;101996.28;5078141;28;45359;-81
2022/08/08 04:10:10;;;;;;;;;4.00;4.00;;;;;19.48;44.13;101992.88;5077219;28;56319;-82
2022/08/08 04:12:36;;;;;;;;;7.00;6.00;;;;;19.46;43.56;101994.72;5078169;27;69031;-82
2022/08/08 04:15:02;;;;;;;;;7.50;7.00;;;;;19.45;43.60;102004.44;5079246;28;45535;-82
2022/08/08 04:17:27;;;;;;;;;7.50;5.00;;;;;19.42;44.19;102001.09;5077871;28;45277;-82
2022/08/08 04:19:55;;;;;;;;;5.00;2.00;;;;;19.41;44.02;101999.38;5078565;28;56425;-82
2022/08/08 04:22:20;;;;;;;;;8.50;5.50;;;;;19.42;44.14;102001.09;5078996;27;46600;-81
2022/08/08 04:24:45;;;;;;;;;6.00;6.00;;;;;19.41;45.13;102004.66;5077910;27;61092;-81
2022/08/08 04:27:10;;;;;;;;;4.50;4.50;;;;;19.38;44.41;102007.44;5078177;28;67217;-81
2022/08/08 04:29:36;;;;;;;;;8.25;5.00;;;;;19.35;44.89;102000.50;5078066;28;66792;-81
2022/08/08 04:32:02;;;;;;;;;5.75;5.00;;;;;19.33;44.36;102010.28;5048416;28;45392;-81
2022/08/08 04:34:27;;;;;;;;;4.00;4.00;;;;;19.33;44.22;102008.53;5058537;28;45509;-81
2022/08/08 04:36:52;;;;;;;;;10.00;6.00;;;;;19.33;43.88;102005.00;5057982;28;61883;-81
2022/08/08 04:39:17;;;;;;;;;5.00;5.00;;;;;19.29;43.90;101998.16;5058105;28;49213;-81
2022/08/08 04:41:43;;;;;;;;;7.25;5.25;;;;;19.26;44.92;101999.16;5057519;28;70287;-81
2022/08/08 04:44:08;;;;;;;;;6.00;6.00;;;;;19.28;44.12;102012.28;5039493;28;68884;-81
2022/08/08 04:46:33;;;;;;;;;7.25;5.75;;;;;19.28;44.07;102007.88;5039869;28;57197;-81
2022/08/08 04:48:59;;;;;;;;;5.50;5.50;;;;;19.28;44.73;102004.38;5041053;28;49492;-80
2022/08/08 04:51:24;;;;;;;;;5.25;5.25;;;;;19.28;44.44;102012.28;5065777;28;73997;-80
2022/08/08 04:53:49;;;;;;;;;4.00;4.00;;;;;19.27;44.66;102011.41;5058091;28;71508;-81
2022/08/08 04:56:18;;;;;;;;;7.75;4.25;;;;;19.27;44.35;102011.41;5040394;28;45478;-81
2022/08/08 04:58:44;;;;;;;;;8.00;7.00;;;;;19.27;45.13;102014.06;5058438;28;45308;-80
2022/08/08 05:01:09;;;;;;;;;6.25;4.00;;;;;19.27;44.95;102016.69;5058117;28;45436;-81
2022/08/08 05:03:34;;;;;;;;;7.00;5.00;;;;;19.26;44.89;102016.75;5057589;28;59021;-81
2022/08/08 05:06:00;;;;;;;;;8.50;6.00;;;;;19.27;44.56;102016.69;5078073;28;50950;-81
2022/08/08 05:08:26;;;;;;;;;8.00;5.75;;;;;19.24;45.97;102024.78;5078272;28;45262;-81
2022/08/08 05:10:52;;;;;;;;;5.00;5.00;;;;;19.20;44.76;102024.97;5077115;28;64388;-81
2022/08/08 05:13:17;;;;;;;;;5.75;4.75;;;;;19.20;45.06;102024.97;5077941;28;45368;-81
2022/08/08 05:15:42;;;;;;;;;7.50;6.00;;;;;19.20;44.88;102027.59;5078473;28;45370;-81
2022/08/08 05:18:08;;;;;;;;;5.75;5.50;;;;;19.19;44.47;102028.53;5077876;28;51983;-81
2022/08/08 05:20:33;;;;;;;;;6.00;6.00;;;;;19.17;45.34;102033.88;5077371;28;70534;-81
2022/08/08 05:22:58;;;;;;;;;7.00;6.00;;;;;19.15;45.26;102036.59;5076830;28;72728;-81
2022/08/08 05:25:24;;;;;;;;;7.25;5.25;;;;;19.16;45.09;102034.81;5077480;28;55152;-81
2022/08/08 05:27:50;;;;;;;;;9.50;6.25;;;;;19.16;45.07;102037.44;5060005;28;45433;-81
2022/08/08 05:30:15;;;;;;;;;7.00;7.00;;;;;19.18;44.99;102038.22;5077910;28;46285;-81
2022/08/08 05:32:40;;;;;;;;;11.00;7.00;;;;;19.19;44.94;102039.94;5059387;28;63242;-81
2022/08/08 05:35:07;;;;;;;;;7.50;6.75;;;;;19.19;45.95;102039.94;5022162;28;63672;-81
2022/08/08 05:37:36;;;;;;;;;8.00;5.75;;;;;19.18;45.29;102047.94;5039326;28;45360;-81
2022/08/08 05:40:05;;;;;;;;;7.25;5.50;;;;;19.16;45.30;102050.63;5039704;28;45638;-81
2022/08/08 05:42:39;;;;;;;;;9.25;6.00;;;;;19.13;45.15;102054.28;5057457;28;45843;-81
2022/08/08 05:45:05;;;;;;;;;6.25;5.75;;;;;19.12;45.60;102057.81;5057712;28;45400;-81
2022/08/08 05:47:31;;;;;;;;;8.50;8.50;;;;;19.12;44.99;102052.56;5039511;28;45416;-81
2022/08/08 05:49:57;;;;;;;;;6.50;6.25;;;;;19.12;45.28;102052.56;5056897;28;46307;-82
2022/08/08 05:52:23;;;;;;;;;9.50;8.00;;;;;19.14;45.40;102045.41;5057169;28;45826;-81
2022/08/08 05:54:48;;;;;;;;;7.00;7.00;;;;;19.14;45.37;102042.78;5057451;28;45376;-81
2022/08/08 05:57:15;;;;;;;;;11.25;7.00;;;;;19.17;45.97;102052.38;5038880;28;58134;-81
2022/08/08 05:59:48;;;;;;;;;8.00;7.00;;;;;19.19;45.49;102050.50;5039228;28;45645;-81
2022/08/08 06:05:10;;;;;;;;;6.50;6.00;;;;;19.26;45.47;102045.78;5069748;28;45277;-81
2022/08/08 06:07:41;;;;;;;;;7.00;6.00;;;;;19.28;45.75;102057.19;5059431;28;45368;-81
2022/08/08 06:10:08;;;;;;;;;6.00;6.00;;;;;19.28;45.71;102052.75;5077260;28;46100;-81
2022/08/08 06:12:35;;;;;;;;;9.00;7.50;;;;;19.31;46.17;102057.88;5059051;28;45800;-81
2022/08/08 06:15:03;;;;;;;;;7.75;4.50;;;;;19.32;45.60;102062.22;5077334;28;45371;-81
2022/08/08 06:17:31;;;;;;;;;7.00;5.25;;;;;19.34;45.46;102063.00;5077203;28;45502;-81
2022/08/08 06:19:57;;;;;;;;;8.25;7.25;;;;;19.37;45.31;102063.81;5058762;28;45471;-81
2022/08/08 06:22:22;;;;;;;;;9.00;7.25;;;;;19.38;45.41;102074.31;5075887;28;73099;-80
2022/08/08 06:24:49;;;;;;;;;10.50;7.00;;;;;19.40;45.56;102074.25;5076363;28;62681;-81
2022/08/08 06:27:16;;;;;;;;;6.25;6.25;;;;;19.43;45.57;102074.09;5077237;28;45479;-81
2022/08/08 06:29:50;;;;;;;;;6.00;5.50;;;;;19.46;45.81;102088.00;5057661;28;73682;-81
2022/08/08 06:32:16;;;;;;;;;8.50;6.75;;;;;19.47;45.01;102079.16;5062685;28;45786;-81
2022/08/08 06:34:46;;;;;;;;;9.25;8.00;;;;;19.48;45.60;102078.25;5056370;28;45356;-81
2022/08/08 06:37:13;;;;;;;;;8.00;6.50;;;;;19.51;44.90;102086.00;5056739;28;45547;-81
2022/08/08 06:39:43;;;;;;;;;10.25;7.00;;;;;19.53;45.49;102076.25;5056603;28;46088;-80
2022/08/08 06:42:11;;;;;;;;;7.00;4.00;;;;;19.58;45.36;102086.59;5038473;28;45459;-81
2022/08/08 06:44:39;;;;;;;;;7.00;7.00;;;;;19.63;45.36;102084.63;5022319;28;45334;-81
2022/08/08 06:47:05;;;;;;;;;7.75;6.75;;;;;19.67;45.05;102086.19;5056457;28;45297;-81
2022/08/08 06:49:31;;;;;;;;;8.00;7.25;;;;;19.71;45.04;102089.56;5055577;28;60454;-81
2022/08/08 06:51:57;;;;;;;;;8.75;7.75;;;;;19.72;44.93;102085.97;5038301;28;45723;-81
2022/08/08 06:54:24;;;;;;;;;6.50;6.50;;;;;19.73;44.66;102093.84;5038502;28;45380;-81
2022/08/08 06:56:50;;;;;;;;;8.75;7.00;;;;;19.76;44.97;102082.31;5038587;28;45475;-81
2022/08/08 06:59:16;;;;;;;;;7.25;6.00;;;;;19.81;44.75;102090.84;5038423;28;45439;-81
2022/08/08 07:01:53;;;;;;;;;10.00;7.00;;;;;19.85;44.98;102086.28;5055300;28;71634;-81
2022/08/08 07:04:23;;;;;;;;;10.75;7.75;;;;;19.87;44.85;102089.72;5049937;28;45541;-81
2022/08/08 07:06:54;;;;;;;;;9.75;7.75;;;;;19.95;44.40;102092.00;5064077;28;45474;-81
2022/08/08 07:09:20;;;;;;;;;7.00;7.00;;;;;19.98;45.00;102098.00;5058203;28;47251;-81
2022/08/08 07:11:51;;;;;;;;;5.75;5.75;;;;;20.06;44.89;102098.50;5058155;28;46027;-81
2022/08/08 07:14:20;;;;;;;;;5.25;5.25;;;;;20.14;45.14;102095.50;5058359;28;45467;-81
2022/08/08 07:16:48;;;;;;;;;6.25;6.25;;;;;20.21;44.76;102096.91;5058284;28;45304;-81
2022/08/08 07:19:31;;;;;;;;;9.00;6.00;;;;;20.31;44.38;102099.97;5076094;28;46707;-81
2022/08/08 07:22:05;;;;;;;;;7.00;6.00;;;;;20.37;44.53;102106.75;5058140;28;45368;-81
2022/08/08 07:24:33;;;;;;;;;6.00;6.00;;;;;20.43;44.68;102102.03;5076070;28;45325;-81
2022/08/08 07:26:59;;;;;;;;;7.00;6.25;;;;;20.49;43.75;102104.34;5076362;28;45352;-80
2022/08/08 07:29:25;;;;;;;;;6.50;6.00;;;;;20.57;44.21;102111.06;5076198;28;45417;-81
2022/08/08 07:31:50;;;;;;;;;6.50;6.50;;;;;20.65;43.89;102117.72;5046958;28;45356;-80
2022/08/08 07:34:19;;;;;;;;;7.00;5.75;;;;;20.72;43.47;102115.63;5036540;28;65967;-81
2022/08/08 07:36:46;;;;;;;;;7.75;6.25;;;;;20.81;43.26;102122.25;5038036;28;45349;-81
2022/08/08 07:39:11;;;;;;;;;7.75;7.00;;;;;20.86;44.00;102115.78;5037802;28;45349;-81
2022/08/08 07:41:37;;;;;;;;;12.50;9.00;;;;;20.92;43.27;102119.06;5054672;28;73235;-81
2022/08/08 07:44:04;;;;;;;;;8.50;4.00;;;;;20.99;43.08;102123.13;5055981;28;45434;-81
2022/08/08 07:46:30;;;;;;;;;7.25;5.50;;;;;21.06;42.71;102122.72;5037683;28;45442;-81
2022/08/08 07:48:55;;;;;;;;;9.00;8.00;;;;;21.12;42.55;102116.25;5037582;28;46449;-81
2022/08/08 07:51:21;;;;;;;;;8.50;6.25;;;;;21.17;43.03;102126.59;5055229;28;54374;-81
2022/08/08 07:54:05;;;;;;;;;7.25;5.00;;;;;21.22;43.78;102119.28;5055758;28;45341;-80
2022/08/08 07:56:36;;;;;;;;;7.25;5.50;;;;;21.29;42.85;102120.66;5055672;28;45424;-81
2022/08/08 07:59:02;;;;;;;;;9.00;7.00;;;;;21.35;42.30;102128.28;5037622;28;45415;-81
2022/08/08 08:01:30;;;;;;;;;8.50;6.25;;;;;21.38;42.56;102114.91;5055044;28;45392;-81
2022/08/08 08:04:03;;;;;;;;;9.50;8.25;;;;;21.44;42.15;102119.88;5039979;28;58059;-81
2022/08/08 08:06:31;;;;;;;;;8.75;7.00;;;;;21.52;43.28;102119.47;5057804;28;45333;-81
2022/08/08 08:09:05;;;;;;;;;7.25;6.75;;;;;21.60;41.99;102119.94;5057622;28;47226;-81
2022/08/08 08:11:33;;;;;;;;;4.00;3.00;;;;;21.68;42.04;102123.97;5075631;28;45764;-81
2022/08/08 08:14:03;;;;;;;;;7.50;7.00;;;;;21.75;41.98;102115.59;5075867;28;45250;-81
2022/08/08 08:16:32;;;;;;;;;4.75;4.50;;;;;21.82;41.73;102114.34;5075579;28;45362;-81
2022/08/08 08:19:00;;;;;;;;;7.25;7.00;;;;;21.89;41.64;102121.94;5057271;28;46481;-81
2022/08/08 08:21:28;;;;;;;;;9.50;6.00;;;;;21.98;41.38;102126.75;5075625;28;45845;-81
2022/08/08 08:23:54;;;;;;;;;6.25;6.00;;;;;22.04;40.89;102111.34;5057571;28;45431;-81
2022/08/08 08:26:20;;;;;;;;;6.75;5.25;;;;;22.09;40.83;102124.34;5075286;28;45352;-81
2022/08/08 08:28:45;;;;;;;;;10.50;7.00;;;;;22.17;40.64;102121.25;5075412;28;47285;-81
2022/08/08 08:31:11;;;;;;;;;6.00;5.00;;;;;22.22;41.15;102120.06;5069814;28;45405;-81
2022/08/08 08:33:36;;;;;;;;;4.25;4.25;;;;;22.30;40.72;102116.16;5055102;28;45413;-81
2022/08/08 08:36:01;;;;;;;;;5.00;5.00;;;;;22.36;40.85;102121.97;5054363;28;70484;-81
2022/08/08 08:38:27;;;;;;;;;5.50;5.50;;;;;22.44;40.03;102132.16;5054894;28;46438;-81
2022/08/08 08:40:52;;;;;;;;;6.50;5.00;;;;;22.52;40.16;102121.09;5055084;28;45385;-81
2022/08/08 08:43:19;;;;;;;;;7.25;6.00;;;;;22.59;39.94;102117.16;5036971;28;45211;-81
2022/08/08 08:45:47;;;;;;;;;6.00;5.00;;;;;22.68;39.76;102118.38;5054797;28;45536;-81
2022/08/08 08:48:13;;;;;;;;;5.00;5.00;;;;;22.74;39.63;102113.59;5057815;28;45454;-81
2022/08/08 08:50:40;;;;;;;;;8.25;5.00;;;;;22.80;39.55;102123.00;5040418;28;45838;-81
2022/08/08 08:53:08;;;;;;;;;5.25;5.25;;;;;22.85;38.93;102117.44;5039397;28;66001;-81
2022/08/08 08:55:38;;;;;;;;;7.50;5.00;;;;;22.89;38.70;102121.59;5058457;28;45373;-81
2022/08/08 08:58:05;;;;;;;;;4.25;4.00;;;;;22.93;38.64;102123.97;5058169;28;46535;-81
2022/08/08 09:00:31;;;;;;;;;6.25;6.25;;;;;23.00;38.57;102122.66;5057843;28;46160;-81
2022/08/08 09:02:59;;;;;;;;;6.00;6.00;;;;;23.05;39.05;102113.59;5040220;28;45407;-82
2022/08/08 09:05:26;;;;;;;;;5.50;5.00;;;;;23.10;38.23;102122.16;5055252;28;45293;-81
2022/08/08 09:07:53;;;;;;;;;4.50;4.50;;;;;23.15;38.08;102120.06;5078284;28;49232;-81
2022/08/08 09:10:22;;;;;;;;;6.00;5.00;;;;;23.22;37.82;102120.56;5060285;28;45744;-81
2022/08/08 09:12:48;;;;;;;;;4.50;3.50;;;;;23.28;37.98;102115.72;5078427;28;45451;-81
2022/08/08 09:15:14;;;;;;;;;3.50;3.50;;;;;23.34;38.17;102118.00;5059998;28;45441;-81
2022/08/08 09:17:40;;;;;;;;;6.25;5.00;;;;;23.42;38.07;102130.84;5061255;28;62895;-80
2022/08/08 09:20:06;;;;;;;;;4.50;4.50;;;;;23.49;37.30;102123.31;5091607;28;45160;-81
2022/08/08 09:22:33;;;;;;;;;4.00;4.00;;;;;23.55;37.54;102121.16;5062600;28;45433;-81
2022/08/08 09:25:00;;;;;;;;;4.75;4.00;;;;;23.67;37.05;102118.69;5078029;27;45437;-81
2022/08/08 09:27:25;;;;;;;;;5.75;4.50;;;;;23.77;37.63;102111.81;5059404;28;56230;-81
2022/08/08 09:30:01;;;;;;;;;4.25;4.00;;;;;23.85;37.03;102112.25;5078149;28;45356;-81
2022/08/08 09:32:51;;;;;;;;;5.00;5.00;;;;;23.91;36.81;102108.34;5044504;28;45440;-81
2022/08/08 09:35:21;;;;;;;;;3.50;3.50;;;;;23.96;36.22;102107.09;5039891;28;45506;-81
2022/08/08 09:37:48;;;;;;;;;4.00;4.00;;;;;24.04;36.24;102106.59;5057678;28;46247;-81
2022/08/08 09:40:18;;;;;;;;;5.25;4.75;;;;;24.13;37.02;102094.50;5057875;28;45298;-81
2022/08/08 09:42:49;;;;;;;;;5.00;5.00;;;;;24.19;36.41;102099.41;5039525;28;45446;-81
2022/08/08 09:45:21;;;;;;;;;5.00;3.75;;;;;24.28;36.01;102100.63;5039734;28;45589;-81
2022/08/08 09:47:47;;;;;;;;;4.75;4.75;;;;;24.36;36.07;102106.28;5057422;28;46143;-81
2022/08/08 09:50:18;;;;;;;;;8.00;4.50;;;;;24.42;35.57;102100.56;5057533;28;45296;-81
2022/08/08 09:52:49;;;;;;;;;4.00;4.00;;;;;24.50;35.40;102102.72;5057302;28;45362;-81
2022/08/08 09:55:14;;;;;;;;;5.00;3.50;;;;;24.57;34.77;102096.06;5039644;28;45369;-82
2022/08/08 09:57:41;;;;;;;;;5.00;5.00;;;;;24.65;35.19;102103.56;5056414;28;45617;-81
2022/08/08 10:00:11;;;;;;;;;5.75;5.00;;;;;24.73;34.75;102101.22;5039525;28;45369;-81
2022/08/08 10:02:39;;;;;;;;;5.50;4.50;;;;;24.83;34.99;102093.44;5057446;28;45443;-81
2022/08/08 10:05:27;;;;;;;;;7.25;4.00;;;;;24.89;34.38;102093.06;5051557;28;45474;-81
2022/08/08 10:07:56;;;;;;;;;5.00;3.25;;;;;24.98;34.40;102091.53;5077282;28;46407;-82
2022/08/08 10:10:27;;;;;;;;;6.00;4.75;;;;;25.03;33.74;102097.41;5059386;28;45966;-82
2022/08/08 10:12:53;;;;;;;;;6.00;6.00;;;;;25.09;34.01;102091.66;5058948;28;45402;-81
2022/08/08 10:15:19;;;;;;;;;5.50;5.50;;;;;25.16;34.09;102092.94;5077419;28;45364;-81
2022/08/08 10:17:46;;;;;;;;;4.00;4.00;;;;;25.23;33.50;102080.94;5077254;28;46269;-81
2022/08/08 10:20:11;;;;;;;;;6.00;6.00;;;;;25.30;33.45;102082.22;5077342;28;45854;-81
2022/08/08 10:22:42;;;;;;;;;5.50;5.50;;;;;25.38;33.28;102080.81;5059211;28;45347;-81
2022/08/08 10:25:09;;;;;;;;;4.00;3.00;;;;;25.42;33.05;102083.16;5065394;28;45305;-81
2022/08/08 10:27:41;;;;;;;;;5.00;5.00;;;;;25.50;32.91;102077.25;5074654;28;75387;-82
2022/08/08 10:30:08;;;;;;;;;5.75;4.75;;;;;25.56;32.58;102079.50;5075989;28;45880;-81
2022/08/08 10:32:42;;;;;;;;;4.50;3.25;;;;;25.64;32.28;102077.13;5076879;28;45439;-81
2022/08/08 10:35:13;;;;;;;;;6.00;5.00;;;;;25.75;32.50;102076.38;5110146;27;45518;-81
2022/08/08 10:37:52;;;;;;;;;5.50;4.00;;;;;25.84;31.73;102078.38;5109856;27;45890;-81
2022/08/08 10:40:18;;;;;;;;;7.00;5.00;;;;;25.91;31.37;102072.56;5076711;28;45346;-82
2022/08/08 10:42:45;;;;;;;;;5.75;4.00;;;;;25.97;31.09;102069.50;5076810;28;45320;-82
2022/08/08 10:45:11;;;;;;;;;3.25;3.25;;;;;26.03;31.00;102077.06;5077081;28;45367;-81
2022/08/08 10:47:41;;;;;;;;;5.00;3.25;;;;;26.09;31.06;102071.25;5075467;28;45371;-81
2022/08/08 10:50:07;;;;;;;;;4.25;4.00;;;;;26.15;31.20;102068.16;5076962;28;45262;-82
2022/08/08 10:52:40;;;;;;;;;4.25;4.00;;;;;26.25;31.09;102061.16;5075536;28;45373;-81
2022/08/08 10:55:08;;;;;;;;;6.50;5.00;;;;;26.36;30.66;102057.69;5076367;28;45286;-81
2022/08/08 10:57:42;;;;;;;;;5.75;4.75;;;;;26.45;30.36;102059.66;5076578;27;45978;-81
2022/08/08 11:00:10;;;;;;;;;4.00;4.00;;;;;26.52;30.15;102072.53;5076478;28;45418;-82
2022/08/08 11:02:36;;;;;;;;;4.00;4.00;;;;;26.56;30.11;102061.53;5109551;27;45465;-82
2022/08/08 11:05:05;;;;;;;;;8.75;4.50;;;;;26.67;29.58;102071.44;5076453;27;45402;-81
2022/08/08 11:07:33;;;;;;;;;5.00;4.00;;;;;26.77;29.56;102072.41;5075194;28;46673;-82
2022/08/08 11:10:10;;;;;;;;;4.00;4.00;;;;;26.86;29.61;102068.19;5075385;28;45379;-82
2022/08/08 11:12:48;;;;;;;;;4.50;4.50;;;;;26.95;29.47;102067.47;5075328;28;45455;-81
2022/08/08 11:15:15;;;;;;;;;5.00;5.00;;;;;27.01;28.67;102053.63;5076552;28;45582;-81
2022/08/08 11:17:41;;;;;;;;;7.25;5.00;;;;;27.08;28.68;102053.13;5075133;28;45572;-82
2022/08/08 11:20:13;;;;;;;;;4.00;4.00;;;;;27.13;28.68;102053.63;5075101;28;45372;-82
2022/08/08 11:22:40;;;;;;;;;7.50;6.25;;;;;27.24;28.58;102058.97;5076521;27;45382;-81
2022/08/08 11:25:06;;;;;;;;;6.25;6.25;;;;;27.37;28.57;102064.22;5075908;28;45459;-82
2022/08/08 11:27:34;;;;;;;;;5.75;5.00;;;;;27.54;28.62;102055.69;5076255;28;47186;-82
2022/08/08 11:30:01;;;;;;;;;5.50;5.50;;;;;27.74;28.42;102059.44;5076389;28;45388;-81
2022/08/08 11:32:30;;;;;;;;;5.50;5.50;;;;;27.90;27.87;102050.22;5060489;28;45306;-82
2022/08/08 11:35:04;;;;;;;;;5.00;5.00;;;;;28.06;27.62;102055.13;5062837;28;45281;-81
2022/08/08 11:37:31;;;;;;;;;4.50;3.25;;;;;28.26;28.03;102059.69;5062595;28;45262;-82
2022/08/08 11:39:58;;;;;;;;;5.25;5.25;;;;;28.51;27.02;102058.47;5055548;28;45293;-82
2022/08/08 11:42:25;;;;;;;;;3.75;3.75;;;;;28.76;26.79;102051.88;5037869;28;45383;-82
2022/08/08 11:44:52;;;;;;;;;3.50;3.50;;;;;29.08;27.09;102052.75;5038086;28;45398;-82
2022/08/08 11:47:17;;;;;;;;;5.25;3.25;;;;;29.52;26.04;102050.72;5055760;28;45532;-81
2022/08/08 11:49:43;;;;;;;;;3.50;2.00;;;;;31.25;24.88;102044.53;5055719;28;45431;-82
2022/08/08 11:52:09;;;;;;;;;3.50;3.50;;;;;35.02;23.86;102052.03;5055792;28;45372;-82
2022/08/08 11:54:34;;;;;;;;;6.25;3.50;;;;;38.55;19.88;102044.78;5054444;28;69376;-82